Aviation Digital Data Service (ADDS)

Output produced by METARs form (0659 UTC 24 March 2019)
found at http://www.aviationweather.gov/metar/data/
 
FKKD 240600Z VRB01KT 4500 BR FEW008 SCT013 FEW016CB 23/22 Q1010 BECMG 6000 NSW
TAF FKKD 240500Z 2406/2512 VRB05KT 8000 BKN016 FEW020CB 
     TEMPO 2406/2407 2500 BR BKN013 FEW016CB 
     TEMPO 2412/2420 TS 
     PROB30 2412/2420 3000 TSRA
       
FKKR 240600Z 30004KT 9999 SCT023 29/20 Q1008
TAF FKKR 240500Z 2406/2418 VRB05KT CAVOK
       
FKKN 240600Z 14006KT 9999 SCT020 20/18 Q1015
FKYS 240600Z VRB01KT 2000 BR SCT002 BKN006 20/20 Q1017 BECMG 4000 BR
TAF FKYS 240500Z 2406/2506 23006KT 8000 BKN006 
     TEMPO 2406/2407 1400 BR 
     BECMG 2407/2409 BKN013 FEW020CB 
     PROB30 
     TEMPO 2409/2415 3000 TSRA 
     BECMG 2421/2423 BKN006